Time;durP1;ratioP1;P1;durP2;ratioP2;P2;SDS_P1;SDS_P2;PMS_P1;PMS_P2;Temp;Humidity;BMP_temperature;BMP_pressure;BME280_temperature;BME280_humidity;BME280_pressure;Samples;Min_cycle;Max_cycle;Signal;HPM_P1;HPM_P2
2021/07/16 00:01:25;;;;;;;16.90;9.20;;;18.90;99.90;;;;;;6129769;23;20471;-76
2021/07/16 00:03:53;;;;;;;17.40;8.97;;;18.90;99.90;;;;;;6129780;23;20503;-77
2021/07/16 00:06:29;;;;;;;15.50;9.27;;;18.90;99.90;;;;;;6129719;23;20514;-76
2021/07/16 00:08:57;;;;;;;14.93;8.80;;;18.90;99.90;;;;;;6156260;23;20323;-76
2021/07/16 00:11:27;;;;;;;13.87;8.50;;;18.90;99.90;;;;;;6129770;23;20193;-77
2021/07/16 00:13:55;;;;;;;16.00;8.50;;;18.90;99.90;;;;;;6129819;23;20424;-76
2021/07/16 00:16:23;;;;;;;12.83;7.63;;;18.90;99.90;;;;;;6129860;23;20412;-76
2021/07/16 00:18:52;;;;;;;13.10;8.00;;;18.90;99.90;;;;;;6129638;23;20453;-76
2021/07/16 00:21:20;;;;;;;17.53;9.37;;;18.90;99.90;;;;;;6129617;23;20436;-76
2021/07/16 00:23:48;;;;;;;11.27;7.50;;;18.90;99.90;;;;;;6129687;23;20425;-76
2021/07/16 00:26:17;;;;;;;14.80;9.47;;;18.90;99.90;;;;;;6129588;23;20512;-76
2021/07/16 00:28:47;;;;;;;17.47;7.67;;;18.80;99.90;;;;;;6129618;23;20559;-76
2021/07/16 00:31:15;;;;;;;12.80;7.60;;;18.80;99.90;;;;;;6165834;23;20927;-76
2021/07/16 00:33:43;;;;;;;16.07;7.87;;;18.90;99.90;;;;;;6165738;23;20467;-77
2021/07/16 00:36:12;;;;;;;17.90;9.20;;;18.80;99.90;;;;;;6129470;23;20884;-77
2021/07/16 00:38:40;;;;;;;17.53;9.07;;;18.80;99.90;;;;;;6165497;23;20393;-77
2021/07/16 00:41:09;;;;;;;11.80;8.00;;;18.80;99.90;;;;;;6156033;23;20437;-77
2021/07/16 00:43:37;;;;;;;15.80;7.97;;;18.80;99.90;;;;;;6129965;23;20511;-77
2021/07/16 00:46:07;;;;;;;12.80;7.37;;;18.80;99.90;;;;;;6130200;23;20468;-77
2021/07/16 00:48:35;;;;;;;12.30;7.57;;;18.80;99.90;;;;;;6165494;23;20408;-76
2021/07/16 00:51:03;;;;;;;20.77;8.90;;;18.80;99.90;;;;;;6165469;23;20536;-77
2021/07/16 00:53:32;;;;;;;14.70;7.60;;;18.80;99.90;;;;;;6129707;23;20980;-77
2021/07/16 00:56:00;;;;;;;14.30;7.93;;;18.80;99.90;;;;;;6166695;23;20488;-76
2021/07/16 00:58:28;;;;;;;15.10;7.90;;;18.80;99.90;;;;;;6158018;23;20463;-77
2021/07/16 01:00:57;;;;;;;11.10;7.30;;;18.80;99.90;;;;;;6157984;23;20429;-77
2021/07/16 01:03:27;;;;;;;10.83;6.97;;;18.80;99.90;;;;;;6131495;23;20408;-77
2021/07/16 01:05:55;;;;;;;16.70;8.25;;;18.80;99.90;;;;;;6130609;23;20445;-76
2021/07/16 01:08:24;;;;;;;19.10;7.20;;;18.80;99.90;;;;;;6131570;23;20512;-76
2021/07/16 01:10:52;;;;;;;10.47;6.90;;;18.80;99.90;;;;;;6157851;23;20512;-77
2021/07/16 01:13:21;;;;;;;17.65;8.52;;;18.80;99.90;;;;;;6131393;23;20424;-76
2021/07/16 01:15:49;;;;;;;12.30;7.00;;;18.80;99.90;;;;;;6167326;23;20196;-76
2021/07/16 01:18:19;;;;;;;15.33;7.77;;;18.80;99.90;;;;;;6131424;23;20923;-76
2021/07/16 01:20:48;;;;;;;17.47;7.87;;;18.70;99.90;;;;;;6131241;23;20468;-76
2021/07/16 01:23:18;;;;;;;13.90;7.20;;;18.70;99.90;;;;;;6131422;23;20907;-76
2021/07/16 01:25:47;;;;;;;13.83;9.90;;;18.70;99.90;;;;;;6131253;23;20404;-76
2021/07/16 01:28:15;;;;;;;14.03;8.47;;;18.70;99.90;;;;;;6131312;23;20409;-77
2021/07/16 01:30:44;;;;;;;10.23;7.03;;;18.70;99.90;;;;;;6167476;23;20420;-76
2021/07/16 01:33:13;;;;;;;11.50;7.70;;;18.60;99.90;;;;;;6167434;23;20479;-76
2021/07/16 01:35:41;;;;;;;11.07;7.00;;;18.60;99.90;;;;;;6167629;23;20404;-76
2021/07/16 01:38:09;;;;;;;15.37;7.97;;;18.60;99.90;;;;;;6131090;23;20923;-76
2021/07/16 01:40:39;;;;;;;18.23;8.27;;;18.60;99.90;;;;;;6157347;23;20478;-76
2021/07/16 01:43:11;;;;;;;16.80;8.17;;;18.60;99.90;;;;;;6131076;23;20495;-76
2021/07/16 01:45:41;;;;;;;17.87;11.43;;;18.60;99.90;;;;;;6157717;23;20421;-77
2021/07/16 01:48:11;;;;;;;14.63;8.50;;;18.50;99.90;;;;;;6167147;23;20503;-76
2021/07/16 01:50:42;;;;;;;11.50;7.97;;;18.50;99.90;;;;;;6130814;23;20539;-76
2021/07/16 01:53:12;;;;;;;12.83;7.77;;;18.50;99.90;;;;;;6167604;23;20468;-76
2021/07/16 01:55:42;;;;;;;13.97;7.87;;;18.50;99.90;;;;;;6167146;23;20435;-76
2021/07/16 01:58:11;;;;;;;10.73;8.47;;;18.50;99.90;;;;;;6166821;23;20497;-76
2021/07/16 02:00:42;;;;;;;15.10;8.98;;;18.50;99.90;;;;;;6165842;23;20467;-76
2021/07/16 02:03:12;;;;;;;13.03;7.97;;;18.50;99.90;;;;;;6131051;23;20173;-76
2021/07/16 02:05:42;;;;;;;19.77;8.97;;;18.50;99.90;;;;;;6130969;23;20416;-76
2021/07/16 02:08:14;;;;;;;17.30;8.88;;;18.50;99.90;;;;;;6130099;23;20411;-76
2021/07/16 02:10:45;;;;;;;12.03;7.70;;;18.50;99.90;;;;;;6166939;23;20239;-77
2021/07/16 02:13:14;;;;;;;15.47;9.13;;;18.40;99.90;;;;;;6131011;23;20499;-77
2021/07/16 02:15:46;;;;;;;13.07;8.23;;;18.40;99.90;;;;;;6130950;23;20421;-77
2021/07/16 02:18:15;;;;;;;11.47;8.37;;;18.40;99.90;;;;;;6156953;23;20420;-77
2021/07/16 02:20:43;;;;;;;18.23;9.30;;;18.40;99.90;;;;;;6130559;23;20523;-76
2021/07/16 02:23:13;;;;;;;15.70;8.70;;;18.40;99.90;;;;;;6166916;23;20440;-77
2021/07/16 02:25:42;;;;;;;14.70;8.27;;;18.40;99.90;;;;;;6130851;23;20460;-77
2021/07/16 02:28:13;;;;;;;16.40;7.27;;;18.40;99.90;;;;;;6130581;23;20437;-77
2021/07/16 02:30:42;;;;;;;12.20;7.90;;;18.40;99.90;;;;;;6130652;23;20491;-77
2021/07/16 02:33:10;;;;;;;9.37;7.70;;;18.30;99.90;;;;;;6167139;23;20429;-76
2021/07/16 02:35:39;;;;;;;13.00;7.93;;;18.30;99.90;;;;;;6166772;23;20400;-76
2021/07/16 02:38:08;;;;;;;21.30;9.53;;;18.30;99.90;;;;;;6130751;23;20513;-77
2021/07/16 02:40:36;;;;;;;11.20;8.50;;;18.30;99.90;;;;;;6166624;23;20495;-77
2021/07/16 02:43:05;;;;;;;16.00;8.63;;;18.30;99.90;;;;;;6130521;23;20934;-77
2021/07/16 02:45:35;;;;;;;18.70;8.80;;;18.30;99.90;;;;;;6157067;23;20440;-76
2021/07/16 02:48:04;;;;;;;13.00;8.27;;;18.30;99.90;;;;;;6156931;23;20437;-76
2021/07/16 02:50:33;;;;;;;13.03;8.00;;;18.30;99.90;;;;;;6156751;23;20436;-76
2021/07/16 02:53:05;;;;;;;13.57;8.10;;;18.30;99.90;;;;;;6130769;23;20416;-76
2021/07/16 02:55:34;;;;;;;15.90;9.63;;;18.30;99.90;;;;;;6166604;23;20444;-76
2021/07/16 02:58:02;;;;;;;15.83;8.77;;;18.20;99.90;;;;;;6130517;23;20496;-76
2021/07/16 03:00:31;;;;;;;13.23;8.77;;;18.20;99.90;;;;;;6165991;23;20404;-77
2021/07/16 03:03:02;;;;;;;17.10;8.07;;;18.20;99.90;;;;;;6130447;23;20265;-77
2021/07/16 03:05:32;;;;;;;15.37;8.10;;;18.20;99.90;;;;;;6130433;23;20420;-76
2021/07/16 03:08:00;;;;;;;15.77;7.77;;;18.20;99.90;;;;;;6130369;23;20523;-76
2021/07/16 03:10:30;;;;;;;14.20;8.50;;;18.20;99.90;;;;;;6129514;23;20452;-76
2021/07/16 03:13:01;;;;;;;14.60;9.30;;;18.20;99.90;;;;;;6167144;23;20161;-76
2021/07/16 03:15:30;;;;;;;18.17;9.13;;;18.20;99.90;;;;;;6130391;23;20413;-76
2021/07/16 03:17:59;;;;;;;18.90;9.20;;;18.20;99.90;;;;;;6130980;23;20412;-76
2021/07/16 03:20:32;;;;;;;16.70;8.57;;;18.20;99.90;;;;;;6129742;23;20936;-76
2021/07/16 03:23:01;;;;;;;19.53;8.70;;;18.20;99.90;;;;;;6130161;23;20413;-77
2021/07/16 03:25:32;;;;;;;16.83;8.47;;;18.10;99.90;;;;;;6131284;23;20888;-76
2021/07/16 03:28:00;;;;;;;9.57;8.43;;;18.10;99.90;;;;;;6156595;23;20428;-76
2021/07/16 03:30:31;;;;;;;12.43;8.93;;;18.10;99.90;;;;;;6166147;23;20606;-77
2021/07/16 03:33:00;;;;;;;17.23;7.70;;;18.10;99.90;;;;;;6130075;23;20508;-77
2021/07/16 03:35:29;;;;;;;13.63;7.40;;;18.10;99.90;;;;;;6130072;23;20444;-77
2021/07/16 03:37:58;;;;;;;17.97;8.57;;;18.10;99.90;;;;;;6166478;23;20405;-76
2021/07/16 03:40:29;;;;;;;15.23;8.20;;;18.10;99.90;;;;;;6129835;23;20830;-77
2021/07/16 03:42:58;;;;;;;15.60;8.10;;;18.10;99.90;;;;;;6156217;23;20919;-76
2021/07/16 03:45:27;;;;;;;12.40;8.17;;;18.10;99.90;;;;;;6129943;23;20452;-77
2021/07/16 03:47:55;;;;;;;13.93;7.73;;;18.10;99.90;;;;;;6166263;23;20523;-77
2021/07/16 03:50:24;;;;;;;14.40;8.50;;;18.00;99.90;;;;;;6129845;23;20448;-77
2021/07/16 03:52:53;;;;;;;23.13;8.57;;;18.00;99.90;;;;;;6130079;23;20456;-76
2021/07/16 03:55:22;;;;;;;10.00;8.20;;;18.00;99.90;;;;;;6129978;23;20453;-76
2021/07/16 03:57:51;;;;;;;14.20;7.83;;;18.00;99.90;;;;;;6129932;23;20962;-76
2021/07/16 04:00:23;;;;;;;19.33;9.18;;;18.00;99.90;;;;;;6129426;23;20921;-76
2021/07/16 04:02:51;;;;;;;18.30;8.40;;;18.10;99.90;;;;;;6129754;23;20201;-77
2021/07/16 04:05:20;;;;;;;13.70;6.90;;;18.10;99.90;;;;;;6130079;23;20424;-76
2021/07/16 04:07:50;;;;;;;13.97;8.40;;;18.10;99.90;;;;;;6129893;23;20439;-77
2021/07/16 04:10:21;;;;;;;16.45;8.52;;;18.10;99.90;;;;;;6164243;23;20424;-76
2021/07/16 04:12:56;;;;;;;15.17;8.27;;;18.20;99.90;;;;;;6130022;23;20169;-76
2021/07/16 04:15:26;;;;;;;15.33;7.70;;;18.20;99.90;;;;;;6129911;23;20508;-77
2021/07/16 04:17:54;;;;;;;10.43;7.20;;;18.10;99.90;;;;;;6165804;23;20396;-76
2021/07/16 04:20:23;;;;;;;23.10;8.67;;;18.10;99.90;;;;;;6129737;23;20468;-77
2021/07/16 04:22:51;;;;;;;18.43;7.50;;;18.10;99.90;;;;;;6165928;23;20765;-76
2021/07/16 04:25:21;;;;;;;15.83;7.73;;;18.10;99.90;;;;;;6129662;23;20891;-76
2021/07/16 04:27:53;;;;;;;13.53;7.90;;;18.10;99.90;;;;;;6129611;23;20448;-76
2021/07/16 04:30:23;;;;;;;19.00;8.70;;;18.10;99.90;;;;;;6165955;23;20471;-76
2021/07/16 04:32:53;;;;;;;15.07;8.03;;;18.10;99.90;;;;;;6155870;23;20397;-77
2021/07/16 04:35:22;;;;;;;15.57;7.23;;;18.10;99.90;;;;;;6131084;23;20706;-76
2021/07/16 04:37:51;;;;;;;13.17;8.17;;;18.20;99.90;;;;;;6129645;23;20409;-76
2021/07/16 04:40:22;;;;;;;14.13;8.53;;;18.20;99.90;;;;;;6129630;23;20946;-76
2021/07/16 04:42:52;;;;;;;17.97;9.93;;;18.20;99.90;;;;;;6129759;23;20455;-76
2021/07/16 04:45:20;;;;;;;21.50;8.60;;;18.20;99.90;;;;;;6129675;23;20415;-76
2021/07/16 04:47:49;;;;;;;14.43;7.50;;;18.20;99.90;;;;;;6129540;23;20483;-76
2021/07/16 04:50:19;;;;;;;19.93;8.67;;;18.20;99.90;;;;;;6162886;23;20429;-77
2021/07/16 05:14:24;;;;;;;14.93;8.27;;;18.30;99.90;;;;;;6156241;23;20432;-74
2021/07/16 05:16:53;;;;;;;12.93;7.60;;;18.40;99.90;;;;;;6152845;23;20445;-74
2021/07/16 05:19:21;;;;;;;15.13;6.97;;;18.40;99.90;;;;;;6167722;23;20467;-74
2021/07/16 05:21:49;;;;;;;17.03;7.70;;;18.50;99.90;;;;;;6167267;23;20421;-74
2021/07/16 05:24:17;;;;;;;17.80;8.70;;;18.50;99.90;;;;;;6167755;23;20408;-74
2021/07/16 05:26:46;;;;;;;17.50;8.43;;;18.60;99.90;;;;;;6168378;23;20461;-74
2021/07/16 05:29:16;;;;;;;14.50;7.77;;;18.60;99.90;;;;;;6168155;23;20754;-76
2021/07/16 05:31:44;;;;;;;14.70;6.50;;;18.60;99.90;;;;;;6171054;23;20412;-78
2021/07/16 05:34:13;;;;;;;11.60;7.90;;;18.60;99.90;;;;;;6133453;23;20421;-76
2021/07/16 05:36:41;;;;;;;13.50;7.50;;;18.60;99.90;;;;;;6133665;23;20961;-76
2021/07/16 05:39:09;;;;;;;16.80;8.03;;;18.60;99.90;;;;;;6169880;23;20477;-76
2021/07/16 05:41:38;;;;;;;19.80;8.07;;;18.70;99.90;;;;;;6130981;23;20443;-76
2021/07/16 05:44:06;;;;;;;16.83;7.57;;;18.70;99.90;;;;;;6167936;23;20405;-76
2021/07/16 05:46:37;;;;;;;15.30;8.00;;;18.70;99.90;;;;;;6130714;23;20408;-76
2021/07/16 05:49:05;;;;;;;15.00;8.30;;;18.70;99.90;;;;;;6166421;23;20457;-77
2021/07/16 05:51:33;;;;;;;13.70;7.97;;;18.80;99.90;;;;;;6154768;23;20455;-77
2021/07/16 05:54:01;;;;;;;17.63;7.97;;;18.90;99.90;;;;;;6164443;23;20492;-77
2021/07/16 05:56:29;;;;;;;15.13;7.57;;;18.90;99.90;;;;;;6130573;23;20405;-76
2021/07/16 05:58:58;;;;;;;17.37;7.17;;;18.90;99.90;;;;;;6167021;23;20479;-76
2021/07/16 06:01:26;;;;;;;13.67;7.23;;;19.00;99.90;;;;;;6166323;23;20472;-77
2021/07/16 06:03:55;;;;;;;17.00;7.47;;;19.00;99.90;;;;;;6168871;23;20409;-75
2021/07/16 06:06:24;;;;;;;15.03;7.10;;;19.00;99.90;;;;;;6171303;23;20412;-76
2021/07/16 06:08:52;;;;;;;14.95;8.18;;;19.10;99.90;;;;;;6166171;23;20492;-76
2021/07/16 06:11:20;;;;;;;20.30;8.20;;;19.10;99.90;;;;;;6137621;23;20436;-76
2021/07/16 06:13:49;;;;;;;18.63;6.80;;;19.20;99.90;;;;;;6172920;23;20413;-77
2021/07/16 06:16:17;;;;;;;16.83;6.87;;;19.20;99.90;;;;;;6134216;23;20919;-77
2021/07/16 06:18:46;;;;;;;16.53;7.03;;;19.20;99.90;;;;;;6169412;23;20480;-77
2021/07/16 06:21:16;;;;;;;16.53;6.90;;;19.20;99.90;;;;;;6134408;23;20523;-76
2021/07/16 06:23:46;;;;;;;15.53;6.73;;;19.10;99.90;;;;;;6135248;23;20421;-76
2021/07/16 06:26:14;;;;;;;16.53;7.10;;;19.10;99.90;;;;;;6168178;23;20432;-76
2021/07/16 06:28:42;;;;;;;16.57;6.90;;;19.10;99.90;;;;;;6170179;23;20424;-76
2021/07/16 06:31:10;;;;;;;17.50;7.30;;;19.10;99.90;;;;;;6170137;23;20823;-76
2021/07/16 06:33:38;;;;;;;15.10;6.20;;;19.10;99.90;;;;;;6171037;23;20401;-75
2021/07/16 06:36:07;;;;;;;15.73;6.50;;;19.10;99.90;;;;;;6173591;23;20457;-76
2021/07/16 06:38:37;;;;;;;14.90;6.67;;;19.10;99.90;;;;;;6135500;23;20500;-77
2021/07/16 06:41:09;;;;;;;25.17;7.93;;;19.10;99.90;;;;;;6134772;23;20931;-77
2021/07/16 06:43:38;;;;;;;16.87;6.80;;;19.10;99.90;;;;;;6173549;23;20385;-76
2021/07/16 06:46:08;;;;;;;15.03;7.00;;;19.10;99.90;;;;;;6137896;23;20413;-76
2021/07/16 06:48:36;;;;;;;16.90;6.60;;;19.20;99.90;;;;;;6134850;23;20436;-76
2021/07/16 06:51:05;;;;;;;18.07;8.10;;;19.20;99.90;;;;;;6166786;23;20441;-76
2021/07/16 06:53:33;;;;;;;22.70;8.23;;;19.20;99.90;;;;;;6133382;23;20413;-76
2021/07/16 06:56:05;;;;;;;18.87;7.50;;;19.30;99.90;;;;;;6137051;23;20421;-76
2021/07/16 06:58:33;;;;;;;14.13;6.20;;;19.40;99.90;;;;;;6139442;23;20417;-77
2021/07/16 07:01:03;;;;;;;17.60;7.80;;;19.40;99.90;;;;;;6174003;23;20492;-76
2021/07/16 07:03:31;;;;;;;19.27;7.13;;;19.40;99.90;;;;;;6138059;23;20430;-76
2021/07/16 07:06:02;;;;;;;22.13;7.30;;;19.40;99.90;;;;;;6161477;23;20472;-77
2021/07/16 07:08:31;;;;;;;21.73;9.00;;;19.50;99.90;;;;;;6173934;23;20401;-76
2021/07/16 07:11:00;;;;;;;15.60;7.03;;;19.60;99.90;;;;;;6139112;23;20440;-76
2021/07/16 07:13:30;;;;;;;17.93;7.07;;;19.70;99.90;;;;;;6171398;23;20451;-76
2021/07/16 07:15:58;;;;;;;19.80;7.00;;;19.80;99.90;;;;;;6169007;23;20405;-76
2021/07/16 07:18:27;;;;;;;16.83;6.87;;;19.90;99.90;;;;;;6161075;23;20914;-76
2021/07/16 07:20:56;;;;;;;20.23;7.40;;;19.90;99.90;;;;;;6173539;23;20405;-77
2021/07/16 07:23:25;;;;;;;13.83;6.93;;;19.90;99.90;;;;;;6136158;23;20448;-76
2021/07/16 07:25:53;;;;;;;18.23;6.23;;;19.90;99.90;;;;;;6137637;23;20416;-76
2021/07/16 07:28:21;;;;;;;17.33;6.97;;;19.90;99.90;;;;;;6136074;23;20421;-76
2021/07/16 07:30:51;;;;;;;24.40;7.30;;;19.90;99.90;;;;;;6172285;23;20527;-76
2021/07/16 07:33:19;;;;;;;17.20;7.17;;;19.90;99.90;;;;;;6162413;23;20459;-75
2021/07/16 07:35:47;;;;;;;17.77;7.00;;;19.90;99.90;;;;;;6163237;23;20401;-76
2021/07/16 07:38:15;;;;;;;16.90;7.07;;;19.90;99.90;;;;;;6135183;23;20419;-77
2021/07/16 07:40:44;;;;;;;19.07;6.90;;;19.90;99.90;;;;;;6170392;23;20496;-77
2021/07/16 07:43:12;;;;;;;21.43;7.30;;;19.90;99.90;;;;;;6168401;23;20397;-77
2021/07/16 07:45:47;;;;;;;28.23;9.00;;;19.90;99.90;;;;;;6135293;23;20421;-76
2021/07/16 07:48:17;;;;;;;16.67;7.93;;;19.90;99.90;;;;;;6169332;23;20381;-77
2021/07/16 07:50:46;;;;;;;18.70;7.20;;;20.00;99.90;;;;;;6162836;23;20449;-77
2021/07/16 07:53:14;;;;;;;16.10;5.90;;;20.00;99.90;;;;;;6158684;23;20409;-76
2021/07/16 07:55:43;;;;;;;15.33;7.13;;;20.10;99.90;;;;;;6169407;23;20428;-77
2021/07/16 07:58:12;;;;;;;17.95;7.57;;;20.10;99.90;;;;;;6135788;23;20748;-77
2021/07/16 08:00:41;;;;;;;20.40;8.80;;;20.10;99.90;;;;;;6172260;23;20185;-77
2021/07/16 08:03:11;;;;;;;15.80;7.07;;;20.20;99.90;;;;;;6139326;23;20441;-76
2021/07/16 08:05:42;;;;;;;20.93;7.97;;;20.20;99.90;;;;;;6136900;23;21000;-76
2021/07/16 08:08:10;;;;;;;20.90;7.88;;;20.20;99.90;;;;;;6133343;23;20424;-76
2021/07/16 08:10:39;;;;;;;16.33;7.87;;;20.30;99.90;;;;;;6133468;23;20284;-76
2021/07/16 08:13:08;;;;;;;22.57;6.90;;;20.30;99.90;;;;;;6155994;23;20448;-76
2021/07/16 08:15:37;;;;;;;18.67;8.03;;;20.30;99.90;;;;;;6137795;23;20408;-76
2021/07/16 08:18:05;;;;;;;16.63;7.83;;;20.40;99.90;;;;;;6165911;23;20423;-77
2021/07/16 08:20:34;;;;;;;13.83;7.27;;;20.40;99.90;;;;;;6168228;23;20793;-76
2021/07/16 08:23:03;;;;;;;14.63;7.40;;;20.40;99.90;;;;;;6137501;23;20421;-76
2021/07/16 08:25:34;;;;;;;19.93;7.73;;;20.50;99.90;;;;;;6130860;23;20424;-76
2021/07/16 08:28:04;;;;;;;18.80;7.77;;;20.50;99.90;;;;;;6171363;23;20409;-76
2021/07/16 08:30:32;;;;;;;12.30;6.33;;;20.60;99.90;;;;;;6134830;23;20511;-77
2021/07/16 08:33:00;;;;;;;22.70;7.50;;;20.60;99.90;;;;;;6173944;23;20480;-76
2021/07/16 08:35:29;;;;;;;16.93;6.90;;;20.70;99.90;;;;;;6137317;23;20428;-77
2021/07/16 08:38:01;;;;;;;21.77;8.17;;;20.70;99.90;;;;;;6171897;23;20381;-76
2021/07/16 08:40:30;;;;;;;15.97;7.30;;;20.70;99.90;;;;;;6169075;23;20489;-77
2021/07/16 08:42:59;;;;;;;20.60;8.27;;;20.80;99.90;;;;;;6137408;23;20786;-77
2021/07/16 08:45:28;;;;;;;20.37;8.80;;;20.80;99.90;;;;;;6168965;23;20401;-76
2021/07/16 08:47:57;;;;;;;18.87;8.07;;;20.80;99.90;;;;;;6132682;23;20741;-77
2021/07/16 08:50:27;;;;;;;18.33;7.70;;;20.90;99.90;;;;;;6171104;23;20448;-76
2021/07/16 08:53:01;;;;;;;18.67;9.17;;;20.90;99.90;;;;;;6136901;23;20413;-76
2021/07/16 08:55:35;;;;;;;16.60;7.85;;;20.90;99.90;;;;;;6173008;23;20772;-76
2021/07/16 08:58:04;;;;;;;17.97;8.47;;;21.00;99.90;;;;;;6167771;23;20169;-76
2021/07/16 09:00:33;;;;;;;13.00;7.93;;;21.00;99.90;;;;;;6156439;23;20496;-77
2021/07/16 09:03:02;;;;;;;14.48;7.30;;;21.00;99.90;;;;;;6134963;23;20453;-76
2021/07/16 09:05:37;;;;;;;19.47;7.70;;;21.00;99.90;;;;;;6168601;23;20541;-76
2021/07/16 09:08:13;;;;;;;16.63;9.13;;;21.00;99.90;;;;;;6131160;23;20407;-76
2021/07/16 09:10:48;;;;;;;17.90;7.53;;;21.10;99.90;;;;;;6132347;23;20452;-77
2021/07/16 09:13:18;;;;;;;15.87;8.30;;;21.10;99.90;;;;;;6132829;23;20416;-75
2021/07/16 09:15:49;;;;;;;21.73;9.57;;;21.20;99.90;;;;;;6168837;23;20397;-76
2021/07/16 09:18:21;;;;;;;13.97;7.00;;;21.30;99.90;;;;;;6136334;23;20408;-76
2021/07/16 09:21:04;;;;;;;17.77;7.30;;;21.40;99.90;;;;;;6173040;23;20429;-76
2021/07/16 09:23:33;;;;;;;12.00;7.17;;;21.50;99.90;;;;;;6136269;23;20415;-77
2021/07/16 09:26:08;;;;;;;12.13;6.73;;;21.50;99.90;;;;;;6174155;23;20729;-76
2021/07/16 09:28:38;;;;;;;17.53;6.87;;;21.60;99.90;;;;;;6173351;23;20377;-76
2021/07/16 09:31:15;;;;;;;19.13;7.57;;;21.70;99.90;;;;;;6170659;23;20520;-77
2021/07/16 09:33:46;;;;;;;18.20;6.50;;;21.80;99.90;;;;;;6136494;23;20399;-77
2021/07/16 09:36:24;;;;;;;15.40;7.40;;;21.90;99.90;;;;;;6133698;23;20412;-76
2021/07/16 09:38:53;;;;;;;16.97;7.10;;;22.00;99.90;;;;;;6135434;23;20413;-77
2021/07/16 09:41:23;;;;;;;13.90;6.80;;;22.10;99.90;;;;;;6132665;23;20830;-77
2021/07/16 09:43:52;;;;;;;13.67;7.27;;;22.20;99.90;;;;;;6167286;23;20439;-77
2021/07/16 09:46:20;;;;;;;14.73;8.00;;;22.20;99.90;;;;;;6131963;23;20408;-76
2021/07/16 09:48:48;;;;;;;13.47;7.67;;;22.20;99.90;;;;;;6167685;23;20455;-77
2021/07/16 09:51:19;;;;;;;12.90;7.60;;;22.20;99.90;;;;;;6131350;23;20491;-77
2021/07/16 09:53:50;;;;;;;18.23;7.43;;;22.20;99.90;;;;;;6158893;23;20408;-76
2021/07/16 09:56:20;;;;;;;13.63;7.13;;;22.30;99.90;;;;;;6139903;23;20506;-77
2021/07/16 09:59:00;;;;;;;23.70;8.87;;;22.40;99.90;;;;;;6137721;23;20420;-77
2021/07/16 10:01:30;;;;;;;16.63;7.73;;;22.40;99.90;;;;;;6177125;23;20412;-77
2021/07/16 10:03:59;;;;;;;16.80;7.73;;;22.50;99.90;;;;;;6137616;23;20471;-77
2021/07/16 10:06:47;;;;;;;13.37;6.97;;;22.50;99.90;;;;;;6163012;23;20412;-76
2021/07/16 10:09:16;;;;;;;13.53;7.17;;;22.50;99.90;;;;;;6131212;23;20463;-77
2021/07/16 10:11:47;;;;;;;17.67;7.07;;;22.60;99.90;;;;;;6166572;23;20456;-77
2021/07/16 10:14:18;;;;;;;14.20;6.53;;;22.60;99.90;;;;;;6167181;23;20381;-77
2021/07/16 10:16:48;;;;;;;12.57;6.60;;;22.70;99.90;;;;;;6131069;23;20476;-76
2021/07/16 10:19:18;;;;;;;12.87;6.17;;;22.80;99.90;;;;;;6170323;23;20401;-76
2021/07/16 10:21:47;;;;;;;15.30;8.70;;;22.80;99.90;;;;;;6170627;23;20824;-77
2021/07/16 10:24:20;;;;;;;15.30;7.43;;;22.80;99.90;;;;;;6136922;23;20448;-77
2021/07/16 10:26:52;;;;;;;18.00;6.90;;;23.00;99.90;;;;;;6173499;23;20388;-77
2021/07/16 10:29:38;;;;;;;17.07;7.67;;;23.00;99.90;;;;;;6137800;23;20409;-77
2021/07/16 10:32:07;;;;;;;15.73;7.53;;;23.10;99.90;;;;;;6173283;23;20446;-77
2021/07/16 10:34:38;;;;;;;25.50;11.03;;;23.10;99.90;;;;;;6139110;23;20413;-77
2021/07/16 10:37:09;;;;;;;22.57;8.73;;;23.20;99.90;;;;;;6139183;23;20413;-77
2021/07/16 10:39:47;;;;;;;34.87;11.67;;;23.20;99.90;;;;;;6176851;23;20736;-77
2021/07/16 10:42:39;;;;;;;20.77;8.27;;;23.20;99.90;;;;;;6160512;23;20401;-78
2021/07/16 10:45:10;;;;;;;22.47;9.00;;;23.30;99.90;;;;;;6132289;23;20950;-77
2021/07/16 10:47:40;;;;;;;11.70;7.07;;;23.30;99.90;;;;;;6166068;23;20439;-77
2021/07/16 10:50:10;;;;;;;15.03;9.00;;;23.40;99.90;;;;;;6167589;23;20443;-77
2021/07/16 12:01:02;;;;;;;14.87;7.87;;;24.20;99.90;;;;;;5891616;24;20441;-76
2021/07/16 12:03:32;;;;;;;17.97;7.60;;;24.10;99.90;;;;;;5947316;23;20420;-76
2021/07/16 12:06:02;;;;;;;16.87;7.60;;;24.10;99.90;;;;;;6037451;23;20436;-76
2021/07/16 12:08:34;;;;;;;23.70;8.70;;;24.10;99.90;;;;;;6013703;23;20420;-76
2021/07/16 12:11:04;;;;;;;20.30;8.43;;;24.00;99.90;;;;;;6013583;23;20483;-76
2021/07/16 12:13:33;;;;;;;17.37;7.90;;;24.00;99.90;;;;;;6013733;23;20504;-76
2021/07/16 12:16:03;;;;;;;15.20;8.57;;;24.00;99.90;;;;;;6049503;23;20495;-76
2021/07/16 12:18:33;;;;;;;14.13;7.60;;;24.10;99.90;;;;;;6165761;23;20236;-77
2021/07/16 12:21:04;;;;;;;14.67;8.20;;;24.10;99.90;;;;;;6129824;23;20440;-76
2021/07/16 12:23:33;;;;;;;13.33;6.50;;;24.20;99.90;;;;;;6166260;23;20388;-75
2021/07/16 12:26:14;;;;;;;18.23;8.50;;;24.20;99.90;;;;;;6156303;23;20460;-75
2021/07/16 12:28:42;;;;;;;17.13;7.50;;;24.20;99.90;;;;;;6129779;23;20872;-76
2021/07/16 12:31:11;;;;;;;14.83;7.27;;;24.30;99.90;;;;;;6129234;23;20436;-75
2021/07/16 12:33:41;;;;;;;14.53;7.03;;;24.30;99.90;;;;;;6130740;23;20421;-75
2021/07/16 12:36:23;;;;;;;19.53;7.47;;;24.30;99.90;;;;;;6129800;23;20759;-75
2021/07/16 12:38:56;;;;;;;15.03;7.30;;;24.30;99.90;;;;;;6156304;23;20930;-75
2021/07/16 12:41:25;;;;;;;13.10;6.87;;;24.30;99.90;;;;;;6129646;23;20440;-75
2021/07/16 12:43:54;;;;;;;11.63;7.23;;;24.40;99.90;;;;;;6165707;23;20495;-74
2021/07/16 12:46:26;;;;;;;17.53;7.80;;;24.40;99.90;;;;;;6165900;23;20434;-74
2021/07/16 12:49:06;;;;;;;13.80;7.60;;;24.50;99.90;;;;;;6129637;23;20409;-75
2021/07/16 12:51:39;;;;;;;15.07;7.33;;;24.50;99.90;;;;;;6130452;23;20547;-74
2021/07/16 12:54:16;;;;;;;13.60;7.17;;;24.50;99.90;;;;;;6165721;23;20385;-74
2021/07/16 12:56:44;;;;;;;17.33;8.47;;;24.50;99.90;;;;;;6165776;23;20464;-75
2021/07/16 12:59:23;;;;;;;14.43;6.80;;;24.50;99.90;;;;;;6165072;23;20412;-74
2021/07/16 13:01:53;;;;;;;16.67;7.40;;;24.60;99.90;;;;;;6165370;23;20648;-74
2021/07/16 13:04:25;;;;;;;11.10;7.07;;;24.60;99.90;;;;;;6166191;23;20447;-74
2021/07/16 13:06:54;;;;;;;10.93;7.28;;;24.70;99.90;;;;;;6165365;23;20870;-74
2021/07/16 13:09:24;;;;;;;15.30;7.30;;;24.70;99.90;;;;;;6165916;23;20165;-74
2021/07/16 13:12:01;;;;;;;12.40;6.90;;;24.80;99.90;;;;;;6165509;23;20515;-76
2021/07/16 13:14:32;;;;;;;15.70;6.80;;;24.90;99.90;;;;;;6131084;23;20412;-76
2021/07/16 13:17:21;;;;;;;17.50;7.47;;;25.00;99.90;;;;;;6166365;23;20413;-76
2021/07/16 13:19:54;;;;;;;10.53;7.70;;;25.00;99.90;;;;;;6129420;23;20454;-77
2021/07/16 13:22:23;;;;;;;9.87;7.57;;;25.00;99.90;;;;;;6155649;23;20393;-76
2021/07/16 13:24:52;;;;;;;13.17;8.73;;;25.00;99.90;;;;;;6155717;23;20409;-77
2021/07/16 13:27:20;;;;;;;11.73;8.03;;;25.10;99.90;;;;;;6129343;23;20535;-76
2021/07/16 13:29:50;;;;;;;13.60;7.30;;;25.10;99.90;;;;;;6129540;23;20740;-76
2021/07/16 13:32:19;;;;;;;13.53;7.10;;;25.20;99.90;;;;;;6129830;23;20493;-76
2021/07/16 13:34:48;;;;;;;13.90;6.80;;;25.20;99.90;;;;;;6165417;23;20906;-76
2021/07/16 13:37:18;;;;;;;12.90;7.90;;;25.20;99.90;;;;;;6165671;23;20407;-76
2021/07/16 13:39:50;;;;;;;13.77;6.83;;;25.20;99.90;;;;;;6129199;23;20447;-77
2021/07/16 13:42:19;;;;;;;14.07;7.40;;;25.30;99.90;;;;;;6129305;23;20416;-76
2021/07/16 13:44:48;;;;;;;12.93;6.53;;;25.30;99.90;;;;;;6129236;23;20467;-76
2021/07/16 13:47:17;;;;;;;13.88;8.10;;;25.30;99.90;;;;;;6128943;23;20421;-76
2021/07/16 13:49:46;;;;;;;12.60;7.77;;;25.30;99.90;;;;;;6129204;23;20608;-77
2021/07/16 13:52:15;;;;;;;10.63;7.03;;;25.30;99.90;;;;;;6129225;23;20471;-76
2021/07/16 13:54:44;;;;;;;11.63;6.97;;;25.30;99.90;;;;;;6165136;23;20413;-76
2021/07/16 13:57:14;;;;;;;14.00;7.25;;;25.30;99.90;;;;;;6128955;23;20516;-76
2021/07/16 13:59:42;;;;;;;16.43;7.17;;;25.30;99.90;;;;;;6165269;23;20193;-77
2021/07/16 14:02:10;;;;;;;13.73;7.90;;;25.30;99.90;;;;;;6167519;23;20731;-77
2021/07/16 14:04:39;;;;;;;9.33;8.00;;;25.30;99.90;;;;;;6134082;23;20887;-78
2021/07/16 14:07:07;;;;;;;14.70;8.43;;;25.30;99.90;;;;;;6131694;23;20511;-76
2021/07/16 14:09:35;;;;;;;13.63;7.10;;;25.40;99.90;;;;;;6168162;23;20428;-78
2021/07/16 14:12:05;;;;;;;12.73;7.00;;;25.40;99.90;;;;;;6159246;23;20432;-79
2021/07/16 14:14:34;;;;;;;13.27;6.93;;;25.50;99.90;;;;;;6132570;23;20448;-79
2021/07/16 14:17:03;;;;;;;12.97;7.43;;;25.50;99.90;;;;;;6133009;23;20504;-79
2021/07/16 14:19:31;;;;;;;14.47;7.77;;;25.50;99.90;;;;;;6133153;23;20793;-79